Time;durP1;ratioP1;P1;durP2;ratioP2;P2;SDS_P1;SDS_P2;PMS_P1;PMS_P2;Temp;Humidity;BMP_temperature;BMP_pressure;BME280_temperature;BME280_humidity;BME280_pressure;Samples;Min_cycle;Max_cycle;Signal;HPM_P1;HPM_P2
2022/05/27 00:01:09;;;;;;;5.40;2.20;;;12.50;99.90;;;;;;5034568;28;20037;-60
2022/05/27 00:03:35;;;;;;;4.40;2.53;;;12.40;99.90;;;;;;5038868;28;20029;-60
2022/05/27 00:06:01;;;;;;;5.10;2.63;;;12.40;99.90;;;;;;5037072;28;20152;-61
2022/05/27 00:08:28;;;;;;;5.90;2.85;;;12.30;99.90;;;;;;5034664;28;20104;-60
2022/05/27 00:10:59;;;;;;;4.60;2.70;;;12.40;99.90;;;;;;5036814;28;20017;-61
2022/05/27 00:13:26;;;;;;;3.83;2.50;;;12.30;99.90;;;;;;5033073;28;20091;-61
2022/05/27 00:15:52;;;;;;;5.15;2.60;;;12.30;99.90;;;;;;5038345;28;20025;-61
2022/05/27 00:18:18;;;;;;;4.32;2.53;;;12.30;99.90;;;;;;5037121;28;20029;-61
2022/05/27 00:20:44;;;;;;;5.53;2.90;;;12.30;99.90;;;;;;5036985;28;20030;-60
2022/05/27 00:23:11;;;;;;;5.50;2.42;;;12.30;99.90;;;;;;5036896;28;20029;-61
2022/05/27 00:25:36;;;;;;;3.55;2.75;;;12.20;99.90;;;;;;5034311;28;20061;-61
2022/05/27 00:28:03;;;;;;;3.72;2.50;;;12.20;99.90;;;;;;5036123;28;20099;-60
2022/05/27 00:30:28;;;;;;;3.65;2.60;;;12.20;99.90;;;;;;5037907;28;20026;-61
2022/05/27 00:32:54;;;;;;;5.50;2.83;;;12.20;99.90;;;;;;5035074;28;20585;-60
2022/05/27 00:35:20;;;;;;;3.72;2.70;;;12.10;99.90;;;;;;5036584;28;20091;-61
2022/05/27 00:37:46;;;;;;;4.28;2.67;;;12.10;99.90;;;;;;5035185;28;20047;-58
2022/05/27 00:40:13;;;;;;;4.18;2.50;;;12.00;99.90;;;;;;5033605;28;20390;-61
2022/05/27 00:42:42;;;;;;;5.88;2.35;;;12.00;99.90;;;;;;5038612;28;20021;-60
2022/05/27 00:45:25;;;;;;;4.15;2.47;;;11.90;99.90;;;;;;5036435;28;20064;-61
2022/05/27 00:47:54;;;;;;;4.55;2.83;;;11.70;99.90;;;;;;5034704;28;20083;-61
2022/05/27 00:50:26;;;;;;;7.50;3.33;;;11.60;99.90;;;;;;5036568;28;20533;-61
2022/05/27 00:52:52;;;;;;;5.82;2.80;;;11.50;99.90;;;;;;5035518;28;20036;-60
2022/05/27 00:55:22;;;;;;;4.95;2.80;;;11.50;99.90;;;;;;5032228;28;20034;-61
2022/05/27 00:57:51;;;;;;;3.78;2.60;;;11.50;99.90;;;;;;5037767;28;20490;-61
2022/05/27 01:00:20;;;;;;;4.28;2.63;;;11.50;99.90;;;;;;5034857;28;20045;-60
2022/05/27 01:02:47;;;;;;;7.97;3.15;;;11.50;99.90;;;;;;5035332;28;20084;-60
2022/05/27 01:05:15;;;;;;;3.63;2.70;;;11.40;99.90;;;;;;5036110;28;20441;-61
2022/05/27 01:07:43;;;;;;;5.75;2.92;;;11.30;99.90;;;;;;5034247;28;20033;-61
2022/05/27 01:10:13;;;;;;;5.97;3.10;;;11.30;99.90;;;;;;5033916;28;20049;-61
2022/05/27 01:13:00;;;;;;;4.50;2.67;;;11.30;99.90;;;;;;5036872;28;20032;-60
2022/05/27 01:15:53;;;;;;;4.18;3.10;;;11.20;99.90;;;;;;5036762;28;20056;-60
2022/05/27 01:21:29;;;;;;;5.97;2.95;;;11.00;99.90;;;;;;5034509;28;20048;-59
2022/05/27 01:23:58;;;;;;;5.25;3.17;;;11.10;99.90;;;;;;5035770;28;20029;-60
2022/05/27 01:26:32;;;;;;;5.53;3.00;;;11.10;99.90;;;;;;5034364;28;20044;-60
2022/05/27 01:29:10;;;;;;;5.93;2.97;;;10.90;99.90;;;;;;5035685;28;20036;-61
2022/05/27 01:31:41;;;;;;;5.95;3.20;;;10.90;99.90;;;;;;5032756;28;20470;-61
2022/05/27 01:34:25;;;;;;;6.22;2.95;;;10.90;99.90;;;;;;5033480;28;20037;-60
2022/05/27 01:37:07;;;;;;;5.25;3.00;;;10.80;99.90;;;;;;5045032;28;20060;-59
2022/05/27 01:39:48;;;;;;;7.05;3.55;;;10.80;99.90;;;;;;5034645;28;20094;-60
2022/05/27 01:42:38;;;;;;;5.03;2.90;;;10.80;99.90;;;;;;5035248;28;20032;-61
2022/05/27 01:45:34;;;;;;;4.85;2.70;;;10.70;99.90;;;;;;5035082;28;20423;-60
2022/05/27 01:48:16;;;;;;;6.93;3.10;;;10.70;99.90;;;;;;5034976;28;20033;-60
2022/05/27 01:50:54;;;;;;;5.07;3.17;;;10.60;99.90;;;;;;5033860;28;20098;-61
2022/05/27 01:53:42;;;;;;;3.33;3.03;;;10.60;99.90;;;;;;5035214;28;20033;-60
2022/05/27 01:56:29;;;;;;;5.38;3.40;;;10.60;99.90;;;;;;5035335;28;20025;-60
2022/05/27 01:59:16;;;;;;;5.22;2.90;;;10.50;99.90;;;;;;5034967;28;20386;-61
2022/05/27 02:01:52;;;;;;;6.10;3.17;;;10.50;99.90;;;;;;5020144;28;20032;-60
2022/05/27 02:04:30;;;;;;;4.85;2.95;;;10.50;99.90;;;;;;5030503;28;20029;-60
2022/05/27 02:07:17;;;;;;;5.72;3.38;;;10.50;99.90;;;;;;5044679;28;20029;-60
2022/05/27 02:09:51;;;;;;;3.20;2.90;;;10.40;99.90;;;;;;5036158;28;20025;-60
2022/05/27 02:12:47;;;;;;;4.88;3.38;;;10.40;99.90;;;;;;5034738;28;20073;-60
2022/05/27 02:15:25;;;;;;;3.83;3.08;;;10.50;99.90;;;;;;5034507;28;20510;-61
2022/05/27 02:17:57;;;;;;;3.45;3.00;;;10.40;99.90;;;;;;5034857;28;20099;-61
2022/05/27 02:20:28;;;;;;;5.13;2.85;;;10.30;99.90;;;;;;5035011;28;20033;-60
2022/05/27 02:23:02;;;;;;;4.07;3.10;;;10.20;99.90;;;;;;5034891;28;20025;-62
2022/05/27 02:25:33;;;;;;;5.05;3.13;;;10.10;99.90;;;;;;5016016;28;20041;-63
2022/05/27 02:28:04;;;;;;;4.00;2.80;;;10.10;99.90;;;;;;5034637;28;20049;-61
2022/05/27 02:30:33;;;;;;;3.75;2.90;;;10.20;99.90;;;;;;5035566;28;20029;-61
2022/05/27 02:36:09;;;;;;;6.10;3.13;;;10.30;99.90;;;;;;5034806;28;20037;-61
2022/05/27 02:38:35;;;;;;;5.53;3.20;;;10.40;99.90;;;;;;5034641;28;20099;-61
2022/05/27 02:41:24;;;;;;;3.55;2.90;;;10.30;99.90;;;;;;5034254;28;20037;-61
2022/05/27 02:44:11;;;;;;;3.92;2.88;;;10.10;99.90;;;;;;5032005;28;20112;-62
2022/05/27 02:46:49;;;;;;;4.00;3.05;;;10.10;99.90;;;;;;5018134;28;20025;-60
2022/05/27 02:49:29;;;;;;;4.30;3.22;;;10.10;99.90;;;;;;5030751;28;20022;-62
2022/05/27 02:52:17;;;;;;;6.63;3.95;;;10.00;99.90;;;;;;5044089;28;20048;-60
2022/05/27 02:55:07;;;;;;;6.20;3.40;;;10.10;99.90;;;;;;5035437;28;20478;-60
2022/05/27 02:57:46;;;;;;;4.50;3.40;;;9.90;99.90;;;;;;5033513;28;20039;-61
2022/05/27 03:00:24;;;;;;;5.13;3.28;;;9.80;99.90;;;;;;5034526;28;20558;-61
2022/05/27 03:02:51;;;;;;;3.67;3.10;;;9.60;99.90;;;;;;5034203;28;20029;-62
2022/05/27 03:05:19;;;;;;;3.85;3.45;;;9.50;99.90;;;;;;5034237;28;20516;-62
2022/05/27 03:08:16;;;;;;;5.53;3.53;;;9.50;99.90;;;;;;5031465;28;20063;-61
2022/05/27 03:10:54;;;;;;;6.18;4.00;;;9.50;99.90;;;;;;5019275;28;20397;-61
2022/05/27 03:13:33;;;;;;;4.63;3.50;;;9.50;99.90;;;;;;5029655;28;20053;-61
2022/05/27 03:16:05;;;;;;;5.30;3.70;;;9.40;99.90;;;;;;5044378;28;20150;-61
2022/05/27 03:18:59;;;;;;;4.75;4.13;;;9.40;99.90;;;;;;5035758;28;20097;-62
2022/05/27 03:21:48;;;;;;;5.57;4.03;;;9.40;99.90;;;;;;5033203;28;20037;-61
2022/05/27 03:25:02;;;;;;;5.68;3.85;;;9.50;99.90;;;;;;5032049;28;20107;-61
2022/05/27 03:27:43;;;;;;;5.05;3.55;;;9.30;99.90;;;;;;5008554;28;20038;-61
2022/05/27 03:30:19;;;;;;;5.72;3.75;;;9.30;99.90;;;;;;5008494;28;20033;-60
2022/05/27 03:32:59;;;;;;;4.90;3.65;;;9.20;99.90;;;;;;5008813;28;20177;-60
2022/05/27 03:35:43;;;;;;;4.80;4.05;;;9.20;99.90;;;;;;5008843;28;20406;-61
2022/05/27 03:38:25;;;;;;;7.13;4.38;;;9.20;99.90;;;;;;5008632;28;20053;-61
2022/05/27 03:41:04;;;;;;;7.65;4.50;;;9.20;99.90;;;;;;5008725;28;20069;-61
2022/05/27 03:43:34;;;;;;;5.65;3.80;;;9.20;99.90;;;;;;4996365;28;20068;-61
2022/05/27 03:46:00;;;;;;;5.82;4.00;;;9.10;99.90;;;;;;5012994;28;20442;-61
2022/05/27 03:48:29;;;;;;;6.75;4.15;;;9.10;99.90;;;;;;5013336;28;20514;-60
2022/05/27 03:51:03;;;;;;;6.57;4.35;;;9.30;99.90;;;;;;5012326;28;20032;-61
2022/05/27 03:56:13;;;;;;;;;;;9.20;99.90;;;;;;5012768;28;20040;-61
2022/05/27 03:58:39;;;;;;;6.00;4.28;;;9.30;99.90;;;;;;5012431;28;20390;-61
2022/05/27 04:01:06;;;;;;;5.93;3.95;;;9.30;99.90;;;;;;5019670;28;20068;-61
2022/05/27 04:03:32;;;;;;;5.18;4.07;;;9.20;99.90;;;;;;5036920;28;20039;-61
2022/05/27 04:05:58;;;;;;;7.43;3.80;;;9.20;99.90;;;;;;5037237;28;20029;-60
2022/05/27 04:08:23;;;;;;;10.88;4.15;;;9.60;99.90;;;;;;5035787;28;20060;-61
2022/05/27 04:10:49;;;;;;;6.57;4.72;;;9.20;99.90;;;;;;5035937;28;20498;-61
2022/05/27 04:13:15;;;;;;;5.93;4.32;;;9.30;99.90;;;;;;5033850;28;20032;-61
2022/05/27 04:15:40;;;;;;;6.30;4.45;;;9.10;99.90;;;;;;5037988;28;20437;-60
2022/05/27 04:18:06;;;;;;;6.15;4.50;;;9.00;99.90;;;;;;5036987;28;20034;-61
2022/05/27 04:20:32;;;;;;;5.72;4.13;;;9.00;99.90;;;;;;5036723;28;20046;-61
2022/05/27 04:22:58;;;;;;;5.47;3.90;;;9.00;99.90;;;;;;5035487;28;20040;-60
2022/05/27 04:25:24;;;;;;;8.77;5.82;;;9.00;99.90;;;;;;5031235;28;20033;-61
2022/05/27 04:27:50;;;;;;;5.90;5.40;;;9.10;99.90;;;;;;5038637;28;20459;-61
2022/05/27 04:30:16;;;;;;;7.50;5.10;;;9.10;99.90;;;;;;5036808;28;20048;-61
2022/05/27 04:32:42;;;;;;;6.13;4.82;;;9.00;99.90;;;;;;5036778;28;20029;-61
2022/05/27 04:35:09;;;;;;;9.73;5.97;;;9.00;99.90;;;;;;5036763;28;20021;-61
2022/05/27 04:37:36;;;;;;;8.50;5.53;;;9.10;99.90;;;;;;5034030;28;20064;-61
2022/05/27 04:40:03;;;;;;;8.10;5.88;;;9.10;99.90;;;;;;5035292;28;20521;-61
2022/05/27 04:42:29;;;;;;;9.68;6.30;;;9.30;99.90;;;;;;5036339;28;20451;-61
2022/05/27 04:44:55;;;;;;;9.88;6.90;;;9.30;99.90;;;;;;5036419;28;20127;-61
2022/05/27 04:47:22;;;;;;;10.20;7.30;;;9.30;99.90;;;;;;5036455;28;20037;-60
2022/05/27 04:49:50;;;;;;;9.00;7.72;;;9.50;99.90;;;;;;5035512;28;20029;-61
2022/05/27 04:52:19;;;;;;;10.05;9.05;;;9.60;99.90;;;;;;5032437;28;20032;-61
2022/05/27 04:54:45;;;;;;;15.02;12.68;;;9.60;99.90;;;;;;5037805;28;20044;-60
2022/05/27 04:57:14;;;;;;;10.77;9.68;;;9.70;99.90;;;;;;5035891;28;20030;-61
2022/05/27 04:59:40;;;;;;;8.43;7.32;;;9.90;99.90;;;;;;5036580;28;20037;-61
2022/05/27 05:02:07;;;;;;;10.23;7.28;;;10.00;99.90;;;;;;5036152;28;20043;-61
2022/05/27 05:04:33;;;;;;;7.80;6.50;;;10.10;99.90;;;;;;5031884;28;20494;-61
2022/05/27 05:07:07;;;;;;;8.07;6.18;;;10.20;99.90;;;;;;5036022;28;20036;-61
2022/05/27 05:09:38;;;;;;;7.50;6.32;;;10.40;99.90;;;;;;5035527;28;20124;-61
2022/05/27 05:12:05;;;;;;;10.32;5.90;;;10.60;99.90;;;;;;5036165;28;20056;-60
2022/05/27 05:14:31;;;;;;;7.88;6.50;;;10.60;99.90;;;;;;5035848;28;20045;-61
2022/05/27 05:16:56;;;;;;;8.10;6.25;;;10.70;99.90;;;;;;5036216;28;20028;-61
2022/05/27 05:19:22;;;;;;;7.53;5.85;;;10.80;99.90;;;;;;5030227;28;20398;-60
2022/05/27 05:21:48;;;;;;;6.40;5.15;;;11.00;99.90;;;;;;5037766;28;20041;-62
2022/05/27 05:24:14;;;;;;;8.23;5.50;;;11.10;99.90;;;;;;5035315;28;20029;-61
2022/05/27 05:26:40;;;;;;;6.47;5.30;;;11.20;99.90;;;;;;5035604;28;20034;-61
2022/05/27 05:29:06;;;;;;;7.30;5.40;;;11.20;99.90;;;;;;5035629;28;20071;-61
2022/05/27 05:31:32;;;;;;;5.30;4.80;;;11.10;99.90;;;;;;5032714;28;20108;-61
2022/05/27 05:33:59;;;;;;;5.78;5.18;;;11.30;99.90;;;;;;5035718;28;20524;-61
2022/05/27 05:36:26;;;;;;;5.45;4.80;;;11.50;99.90;;;;;;5036518;28;20116;-61
2022/05/27 05:38:52;;;;;;;5.63;4.07;;;11.60;99.90;;;;;;5034773;28;20084;-61
2022/05/27 05:41:55;;;;;;;4.95;4.20;;;11.70;99.90;;;;;;5035324;28;20453;-61
2022/05/27 05:44:20;;;;;;;3.97;3.60;;;11.80;99.90;;;;;;5034088;28;20029;-60
2022/05/27 05:46:48;;;;;;;4.07;3.60;;;11.90;99.90;;;;;;5034133;28;20551;-61
2022/05/27 05:49:14;;;;;;;6.18;4.07;;;12.00;99.90;;;;;;5030619;28;20037;-61
2022/05/27 05:51:39;;;;;;;5.07;3.75;;;12.10;99.90;;;;;;5036784;28;20475;-61
2022/05/27 05:54:05;;;;;;;4.68;3.95;;;12.30;99.90;;;;;;5035135;28;20037;-61
2022/05/27 05:56:33;;;;;;;3.88;3.58;;;12.40;99.90;;;;;;5035470;28;20029;-61
2022/05/27 05:59:00;;;;;;;3.70;3.40;;;12.50;99.90;;;;;;5033775;28;20017;-61
2022/05/27 06:01:26;;;;;;;5.38;3.85;;;12.60;99.90;;;;;;5030777;28;20034;-61
2022/05/27 06:03:52;;;;;;;4.03;3.63;;;12.70;99.90;;;;;;5036597;28;20028;-61
2022/05/27 06:06:18;;;;;;;4.25;3.78;;;12.80;99.90;;;;;;5032962;28;20038;-61
2022/05/27 06:08:44;;;;;;;5.18;3.53;;;12.80;99.90;;;;;;5034800;28;20048;-61
2022/05/27 06:11:09;;;;;;;4.18;3.78;;;12.90;99.90;;;;;;5034992;28;20477;-61
2022/05/27 06:13:36;;;;;;;4.53;3.55;;;13.10;99.90;;;;;;5031810;28;20028;-61
2022/05/27 06:16:03;;;;;;;5.53;3.60;;;13.30;99.90;;;;;;5030167;28;20524;-61
2022/05/27 06:18:29;;;;;;;5.75;3.85;;;13.30;99.90;;;;;;5030839;28;20025;-61
2022/05/27 06:20:55;;;;;;;4.38;3.78;;;13.30;99.90;;;;;;5029992;28;20532;-60
2022/05/27 06:23:22;;;;;;;4.55;3.50;;;13.50;99.90;;;;;;5030319;28;20025;-61
2022/05/27 06:25:54;;;;;;;3.83;3.53;;;13.70;99.90;;;;;;5027108;28;20029;-60
2022/05/27 06:36:33;;;;;;;;;;;14.00;99.90;;;;;;5038862;28;20139;-61
2022/05/27 06:38:58;;;;;;;3.75;3.45;;;14.40;99.90;;;;;;5034642;28;20031;-61
2022/05/27 06:41:24;;;;;;;4.03;3.20;;;15.00;99.90;;;;;;5034590;28;20127;-61
2022/05/27 06:43:50;;;;;;;4.28;3.53;;;15.30;99.90;;;;;;5033712;28;20028;-61
2022/05/27 06:46:16;;;;;;;4.85;3.28;;;15.30;99.90;;;;;;5030542;28;20037;-62
2022/05/27 06:48:41;;;;;;;5.97;3.47;;;15.50;99.90;;;;;;5035835;28;20060;-61
2022/05/27 06:51:07;;;;;;;6.43;3.78;;;15.50;99.90;;;;;;5033121;28;20103;-60
2022/05/27 06:53:33;;;;;;;5.85;3.60;;;15.60;99.90;;;;;;5034151;28;20025;-61
2022/05/27 06:55:59;;;;;;;8.90;4.53;;;15.40;99.90;;;;;;5034459;28;20100;-60
2022/05/27 06:58:25;;;;;;;7.43;4.18;;;15.30;99.90;;;;;;5030019;28;20037;-60
2022/05/27 07:00:51;;;;;;;8.02;3.95;;;15.40;99.90;;;;;;5035667;28;20402;-62
2022/05/27 07:03:16;;;;;;;6.35;3.90;;;15.60;99.90;;;;;;5032715;28;20055;-61
2022/05/27 07:05:42;;;;;;;5.35;3.63;;;16.10;99.90;;;;;;5033932;28;20037;-61
2022/05/27 07:08:08;;;;;;;4.25;2.97;;;16.40;99.90;;;;;;5034022;28;20140;-61
2022/05/27 07:10:33;;;;;;;7.95;3.30;;;16.50;99.90;;;;;;5029872;28;20022;-61
2022/05/27 07:13:00;;;;;;;8.27;3.40;;;16.70;99.90;;;;;;5033511;28;20390;-61
2022/05/27 07:15:27;;;;;;;8.25;3.22;;;16.80;99.90;;;;;;5034367;28;20541;-61
2022/05/27 07:17:53;;;;;;;4.95;3.28;;;17.30;99.90;;;;;;5035893;28;20380;-61
2022/05/27 07:20:18;;;;;;;6.35;3.00;;;17.10;99.90;;;;;;5037845;28;20032;-61
2022/05/27 07:22:44;;;;;;;6.10;2.90;;;17.40;99.90;;;;;;5036617;28;20056;-61
2022/05/27 07:25:13;;;;;;;5.05;2.42;;;17.30;99.90;;;;;;5035161;28;20029;-61
2022/05/27 07:27:42;;;;;;;5.57;3.08;;;17.50;99.90;;;;;;5039108;28;20497;-61
2022/05/27 07:30:09;;;;;;;4.32;3.03;;;17.50;99.90;;;;;;5037883;28;20032;-61
2022/05/27 07:32:38;;;;;;;4.90;2.95;;;17.60;99.90;;;;;;5037351;28;20546;-61
2022/05/27 07:35:05;;;;;;;6.00;2.95;;;17.30;99.90;;;;;;5038019;28;20067;-61
2022/05/27 07:37:31;;;;;;;4.13;2.83;;;17.50;99.90;;;;;;5034232;28;20048;-60
2022/05/27 07:39:56;;;;;;;3.63;2.78;;;17.80;99.90;;;;;;5038265;28;20037;-61
2022/05/27 07:42:22;;;;;;;5.72;2.53;;;17.90;99.90;;;;;;5038277;28;20109;-62
2022/05/27 07:44:50;;;;;;;5.55;2.72;;;18.10;99.90;;;;;;5037222;28;20083;-61
2022/05/27 07:47:17;;;;;;;3.20;2.40;;;18.40;99.90;;;;;;5037253;28;20037;-61
2022/05/27 07:49:43;;;;;;;4.97;2.65;;;18.00;99.90;;;;;;5035850;28;20105;-61
2022/05/27 07:52:08;;;;;;;4.18;2.42;;;18.20;99.90;;;;;;5034178;28;20125;-60
2022/05/27 07:54:34;;;;;;;3.17;2.40;;;18.30;99.90;;;;;;5039414;28;20036;-61
2022/05/27 07:57:00;;;;;;;3.85;2.60;;;19.00;99.90;;;;;;5035798;28;20037;-61
2022/05/27 07:59:27;;;;;;;5.00;2.63;;;19.10;99.90;;;;;;5036976;28;20040;-61
2022/05/27 08:01:53;;;;;;;4.05;2.40;;;18.70;99.90;;;;;;5036826;28;20025;-62
2022/05/27 08:04:18;;;;;;;3.47;2.50;;;19.00;99.90;;;;;;5032940;28;20032;-62
2022/05/27 08:06:45;;;;;;;3.92;2.60;;;19.10;99.90;;;;;;5038804;28;20032;-62
2022/05/27 08:09:12;;;;;;;4.47;2.70;;;19.10;99.90;;;;;;5036938;28;20020;-61
2022/05/27 08:11:38;;;;;;;3.40;2.72;;;19.10;99.90;;;;;;5037046;28;20022;-61
2022/05/27 08:14:05;;;;;;;3.22;2.20;;;19.30;99.90;;;;;;5036712;28;20032;-61
2022/05/27 08:16:33;;;;;;;5.45;2.30;;;19.20;99.90;;;;;;5032857;28;20035;-61
2022/05/27 08:19:00;;;;;;;4.95;2.10;;;19.40;99.90;;;;;;5037113;28;20049;-61
2022/05/27 08:21:26;;;;;;;5.45;2.67;;;20.60;99.90;;;;;;5037579;28;20513;-61
2022/05/27 08:23:52;;;;;;;8.45;4.97;;;20.30;99.90;;;;;;5036781;28;20463;-60
2022/05/27 08:26:18;;;;;;;3.50;2.55;;;21.00;99.90;;;;;;5036843;28;20037;-61
2022/05/27 08:28:45;;;;;;;3.78;2.00;;;21.60;99.90;;;;;;5034247;28;20063;-61
2022/05/27 08:31:10;;;;;;;2.53;1.92;;;22.10;99.90;;;;;;5033284;28;20017;-61
2022/05/27 08:39:09;;;;;;;3.67;2.05;;;20.70;99.90;;;;;;5036159;28;20107;-62
2022/05/27 08:41:53;;;;;;;5.95;2.00;;;21.80;99.90;;;;;;5036788;28;20037;-62
2022/05/27 08:44:40;;;;;;;4.20;1.90;;;21.40;99.90;;;;;;5036648;28;20087;-62
2022/05/27 08:47:28;;;;;;;3.63;1.70;;;20.90;99.90;;;;;;5035859;28;20020;-62
2022/05/27 08:50:26;;;;;;;6.22;1.88;;;21.40;99.90;;;;;;5035825;28;20108;-64
2022/05/27 08:53:14;;;;;;;5.10;1.73;;;21.70;99.90;;;;;;5023889;28;20029;-63
2022/05/27 09:01:23;;;;;;;6.38;1.85;;;22.20;99.90;;;;;;5030903;28;20044;-62
2022/05/27 09:03:55;;;;;;;5.00;1.60;;;22.60;99.90;;;;;;5029775;28;20017;-63
2022/05/27 09:06:31;;;;;;;3.97;1.38;;;23.20;99.90;;;;;;5035226;28;20120;-63
2022/05/27 09:08:56;;;;;;;5.55;1.70;;;22.40;99.90;;;;;;5035762;28;20048;-62
2022/05/27 09:11:34;;;;;;;5.53;1.70;;;23.50;99.90;;;;;;5035874;28;20486;-63
2022/05/27 09:14:14;;;;;;;5.22;1.48;;;23.30;99.90;;;;;;5034311;28;20074;-63
2022/05/27 09:16:54;;;;;;;5.20;1.48;;;23.40;99.90;;;;;;5032311;28;20410;-63
2022/05/27 09:19:49;;;;;;;3.55;1.48;;;23.50;99.90;;;;;;5031499;28;20497;-63
2022/05/27 09:22:43;;;;;;;2.88;1.40;;;23.30;99.90;;;;;;5046410;28;20104;-63
2022/05/27 09:25:35;;;;;;;3.35;1.30;;;23.10;99.90;;;;;;5045666;28;20421;-65
2022/05/27 09:28:35;;;;;;;56.90;3.78;;;22.50;99.90;;;;;;5043571;28;20494;-63
2022/05/27 09:31:05;;;;;;;5.75;1.75;;;22.90;99.90;;;;;;5045588;28;20079;-63
2022/05/27 09:33:32;;;;;;;2.65;1.55;;;23.10;99.90;;;;;;5036832;28;20536;-62
2022/05/27 09:36:15;;;;;;;3.92;1.40;;;22.80;99.90;;;;;;5035774;28;20490;-62
2022/05/27 09:39:02;;;;;;;3.90;1.37;;;22.00;99.90;;;;;;5035079;28;20414;-63
2022/05/27 09:41:49;;;;;;;7.00;1.40;;;21.10;99.90;;;;;;5034992;28;20037;-62
2022/05/27 09:44:24;;;;;;;3.33;1.40;;;21.80;99.90;;;;;;5034714;28;20052;-63
2022/05/27 09:46:50;;;;;;;1.98;1.20;;;21.70;99.90;;;;;;5034786;28;20029;-62
2022/05/27 09:49:16;;;;;;;2.47;1.50;;;21.20;99.90;;;;;;5031510;28;20499;-62
2022/05/27 09:51:42;;;;;;;3.08;1.30;;;22.00;99.90;;;;;;5036748;28;20025;-69
2022/05/27 09:54:25;;;;;;;1.95;1.30;;;21.90;99.90;;;;;;5033461;28;20025;-71
2022/05/27 09:57:04;;;;;;;3.72;1.25;;;22.20;99.90;;;;;;5035190;28;20134;-70
2022/05/27 09:59:48;;;;;;;1.77;1.20;;;22.60;99.90;;;;;;5033143;28;20038;-71
2022/05/27 10:02:33;;;;;;;2.28;1.17;;;23.20;99.90;;;;;;5034825;28;20111;-71
2022/05/27 10:05:06;;;;;;;3.95;1.30;;;23.60;99.90;;;;;;5034845;28;20056;-71
2022/05/27 10:07:35;;;;;;;5.55;1.52;;;23.40;99.90;;;;;;5031115;28;20083;-71
2022/05/27 10:10:26;;;;;;;3.00;1.50;;;23.20;99.90;;;;;;5034775;28;20017;-70
2022/05/27 10:12:53;;;;;;;2.70;1.20;;;23.40;99.90;;;;;;5044004;28;20041;-70
2022/05/27 10:15:34;;;;;;;2.63;1.30;;;23.70;99.90;;;;;;5034566;28;20018;-71
2022/05/27 10:18:24;;;;;;;2.30;1.30;;;23.50;99.90;;;;;;5035302;28;20061;-70
2022/05/27 10:21:09;;;;;;;3.13;1.50;;;23.00;99.90;;;;;;5034532;28;20033;-70
2022/05/27 10:23:37;;;;;;;3.53;1.70;;;23.30;99.90;;;;;;5034789;28;20378;-72
2022/05/27 10:26:32;;;;;;;4.75;1.70;;;25.50;99.90;;;;;;5034244;28;20079;-72
2022/05/27 10:29:16;;;;;;;4.65;1.42;;;24.80;99.90;;;;;;5034055;28;20033;-61
2022/05/27 10:31:51;;;;;;;9.07;2.20;;;24.70;99.90;;;;;;5031563;28;20033;-60
2022/05/27 10:34:44;;;;;;;5.45;1.70;;;25.10;99.90;;;;;;5030381;28;20041;-62
2022/05/27 10:37:22;;;;;;;9.47;1.70;;;25.10;99.90;;;;;;5029719;28;20135;-63
2022/05/27 10:40:28;;;;;;;3.35;1.80;;;23.10;99.90;;;;;;5030743;28;20060;-63
2022/05/27 10:43:28;;;;;;;10.60;1.95;;;20.90;99.90;;;;;;5028165;28;20034;-63
2022/05/27 10:45:56;;;;;;;31.20;3.08;;;23.10;99.90;;;;;;5043992;28;20029;-64
2022/05/27 10:48:24;;;;;;;9.60;1.67;;;24.80;99.90;;;;;;5034560;28;20116;-66
2022/05/27 10:51:08;;;;;;;5.40;1.58;;;26.30;99.90;;;;;;5034070;28;20030;-67
2022/05/27 10:53:50;;;;;;;2.78;1.13;;;25.40;99.90;;;;;;5034449;28;20033;-67
2022/05/27 10:56:29;;;;;;;4.28;1.40;;;25.60;99.50;;;;;;5032675;28;20086;-68
2022/05/27 11:02:42;;;;;;;3.58;1.30;;;25.60;99.00;;;;;;5025822;28;20394;-70
2022/05/27 11:05:28;;;;;;;3.33;1.50;;;25.20;99.90;;;;;;5033786;28;20531;-68
2022/05/27 11:08:33;;;;;;;4.72;1.52;;;25.20;99.10;;;;;;5033281;28;20072;-68
2022/05/27 11:11:34;;;;;;;2.25;1.30;;;24.70;99.90;;;;;;4998111;28;20117;-68
2022/05/27 11:17:30;;;;;;;4.63;1.30;;;26.40;98.40;;;;;;5009889;28;20037;-67
2022/05/27 11:20:11;;;;;;;2.90;1.35;;;26.50;98.10;;;;;;4997772;28;20034;-68
2022/05/27 11:22:58;;;;;;;4.25;1.40;;;24.80;98.00;;;;;;5008955;28;20053;-68
2022/05/27 11:25:40;;;;;;;3.65;1.27;;;24.80;98.70;;;;;;5008992;28;20569;-67
2022/05/27 11:28:11;;;;;;;3.60;1.27;;;25.50;98.80;;;;;;5009198;28;20042;-67
2022/05/27 11:30:45;;;;;;;1.40;1.23;;;25.70;97.10;;;;;;5009036;28;20475;-66
2022/05/27 11:33:33;;;;;;;3.45;1.20;;;26.30;97.60;;;;;;5008456;28;20523;-67
2022/05/27 11:36:09;;;;;;;3.47;1.33;;;25.80;97.90;;;;;;5007936;28;20542;-66
2022/05/27 11:38:38;;;;;;;2.38;1.20;;;25.90;98.30;;;;;;5006456;28;20069;-67
2022/05/27 11:41:16;;;;;;;3.83;1.38;;;25.50;98.40;;;;;;5010930;28;20046;-66
2022/05/27 11:44:00;;;;;;;2.42;1.15;;;25.80;98.30;;;;;;5028106;28;20025;-66
2022/05/27 11:46:34;;;;;;;3.80;1.20;;;26.40;96.90;;;;;;5029866;28;20065;-67
2022/05/27 11:49:24;;;;;;;3.10;1.42;;;25.60;97.10;;;;;;5030034;28;20439;-67
2022/05/27 11:52:03;;;;;;;2.22;1.20;;;25.00;98.60;;;;;;5030471;28;20025;-65
2022/05/27 11:54:36;;;;;;;2.05;1.13;;;25.40;97.10;;;;;;5036324;28;20087;-66
2022/05/27 11:57:18;;;;;;;;;;;25.50;98.10;;;;;;5029878;28;20151;-66
2022/05/27 12:00:16;;;;;;;3.45;1.25;;;25.20;98.40;;;;;;5028489;28;19940;-66
2022/05/27 12:03:09;;;;;;;1.60;0.93;;;25.20;98.60;;;;;;5028223;28;20045;-65
2022/05/27 12:05:53;;;;;;;3.90;1.10;;;25.40;98.00;;;;;;5030827;28;20312;-66
2022/05/27 12:08:41;;;;;;;2.70;1.17;;;25.50;98.00;;;;;;5030858;28;20272;-66
2022/05/27 12:11:24;;;;;;;9.88;1.40;;;25.90;98.10;;;;;;5036541;28;20068;-65
2022/05/27 12:13:55;;;;;;;;;;;26.40;97.90;;;;;;5036562;28;20029;-65
2022/05/27 12:16:31;;;;;;;2.47;1.17;;;25.70;96.70;;;;;;5032776;28;20396;-66
2022/05/27 12:19:21;;;;;;;2.53;1.10;;;25.40;97.90;;;;;;5046737;28;20037;-66
2022/05/27 12:22:15;;;;;;;6.45;1.70;;;24.80;98.70;;;;;;5038433;28;20120;-65
2022/05/27 12:24:47;;;;;;;21.13;5.25;;;25.00;99.30;;;;;;5044476;28;20037;-66
2022/05/27 12:27:17;;;;;;;1.60;1.15;;;25.40;99.90;;;;;;5037625;28;20494;-66
2022/05/27 12:29:47;;;;;;;2.83;1.23;;;25.20;98.80;;;;;;5035422;28;20034;-65
2022/05/27 12:32:14;;;;;;;9.07;2.58;;;25.30;98.70;;;;;;5036383;28;20492;-65
2022/05/27 12:34:50;;;;;;;6.47;2.85;;;24.60;99.60;;;;;;5034193;28;20026;-66
2022/05/27 12:37:21;;;;;;;3.50;1.75;;;24.80;99.30;;;;;;5032999;28;20088;-65
2022/05/27 12:39:49;;;;;;;3.75;1.30;;;25.10;99.10;;;;;;5038304;28;20502;-65
2022/05/27 12:42:24;;;;;;;2.63;1.33;;;25.30;98.50;;;;;;5036328;28;20052;-65
2022/05/27 12:44:50;;;;;;;1.92;1.48;;;25.50;99.00;;;;;;5036380;28;20025;-65
2022/05/27 12:47:28;;;;;;;3.17;1.30;;;25.60;98.80;;;;;;5036312;28;20036;-66
2022/05/27 12:50:02;;;;;;;3.75;1.30;;;25.30;98.50;;;;;;5035736;28;20024;-65
2022/05/27 12:52:28;;;;;;;2.33;1.35;;;24.40;99.20;;;;;;5015728;28;20030;-65
2022/05/27 12:54:54;;;;;;;1.55;1.10;;;24.30;99.10;;;;;;5034547;28;20379;-65
2022/05/27 13:00:56;;;;;;;1.42;1.30;;;24.20;99.90;;;;;;5036143;28;20429;-67
2022/05/27 13:03:41;;;;;;;2.53;1.20;;;24.30;99.90;;;;;;5036604;28;20029;-65
2022/05/27 13:06:14;;;;;;;8.05;3.20;;;24.40;99.90;;;;;;5035264;28;20163;-65
2022/05/27 13:08:46;;;;;;;2.97;1.40;;;25.10;99.10;;;;;;5034398;28;20031;-65
2022/05/27 13:11:36;;;;;;;1.58;1.20;;;25.00;99.50;;;;;;5036060;28;20017;-65
2022/05/27 13:14:05;;;;;;;2.17;1.23;;;24.80;99.10;;;;;;5032725;28;20040;-65
2022/05/27 13:16:46;;;;;;;2.25;1.20;;;24.10;99.40;;;;;;5032469;28;20098;-65
2022/05/27 13:19:36;;;;;;;2.38;1.20;;;23.60;99.90;;;;;;5032818;28;20096;-65
2022/05/27 13:22:14;;;;;;;3.60;1.60;;;23.60;99.90;;;;;;5044908;28;20418;-65
2022/05/27 13:24:44;;;;;;;1.55;1.10;;;23.50;99.90;;;;;;5036292;28;20022;-64
2022/05/27 13:27:18;;;;;;;2.08;1.30;;;23.70;99.90;;;;;;5035697;28;20025;-65
2022/05/27 13:29:59;;;;;;;1.95;1.13;;;23.70;99.90;;;;;;5035718;28;20087;-65
2022/05/27 13:32:31;;;;;;;2.10;1.27;;;23.70;99.90;;;;;;5035602;28;20025;-65
2022/05/27 13:35:02;;;;;;;2.42;1.00;;;24.40;99.90;;;;;;5034712;28;20021;-63
2022/05/27 13:37:50;;;;;;;5.85;1.55;;;24.40;99.90;;;;;;5016093;28;20076;-64
2022/05/27 13:40:21;;;;;;;2.17;1.17;;;24.30;99.90;;;;;;5031926;28;20081;-64
2022/05/27 13:42:51;;;;;;;2.92;1.40;;;24.40;99.90;;;;;;5037028;28;20055;-65
2022/05/27 13:45:47;;;;;;;1.60;1.50;;;23.90;99.90;;;;;;5034871;28;20413;-64
2022/05/27 13:48:32;;;;;;;3.28;1.45;;;24.10;99.90;;;;;;5030022;28;20021;-65
2022/05/27 13:51:11;;;;;;;1.90;1.33;;;24.20;99.90;;;;;;5033154;28;20032;-65
2022/05/27 13:53:38;;;;;;;2.78;1.40;;;24.10;99.90;;;;;;5031462;28;20028;-64
2022/05/27 13:56:13;;;;;;;2.72;1.30;;;24.00;99.90;;;;;;5033899;28;20020;-65
2022/05/27 13:58:52;;;;;;;2.17;1.30;;;24.20;99.90;;;;;;5030685;28;20383;-65
2022/05/27 14:01:23;;;;;;;1.75;1.20;;;24.50;99.90;;;;;;5031049;28;20537;-65